Time;durP1;ratioP1;P1;durP2;ratioP2;P2;SDS_P1;SDS_P2;PMS_P1;PMS_P2;Temp;Humidity;BMP_temperature;BMP_pressure;BME280_temperature;BME280_humidity;BME280_pressure;Samples;Min_cycle;Max_cycle;Signal;HPM_P1;HPM_P2
2022/04/28 00:00:41;;;;;;;17.80;15.90;;;;;;;8.66;66.17;98575.27;106024;1287;22554;-90
2022/04/28 00:03:11;;;;;;;17.90;16.00;;;;;;;8.68;66.30;98576.58;106271;1287;22492;-87
2022/04/28 00:05:39;;;;;;;22.20;16.50;;;;;;;8.68;65.98;98575.27;106012;1287;22642;-90
2022/04/28 00:08:08;;;;;;;18.50;16.60;;;;;;;8.67;65.76;98574.95;105831;1287;26690;-91
2022/04/28 00:10:37;;;;;;;21.90;19.90;;;;;;;8.64;65.87;98574.31;105388;1287;22570;-90
2022/04/28 00:13:07;;;;;;;21.60;19.50;;;;;;;8.62;65.97;98573.08;105699;1287;24120;-89
2022/04/28 00:15:35;;;;;;;22.10;19.90;;;;;;;8.60;66.12;98572.16;105822;1287;22573;-88
2022/04/28 00:18:03;;;;;;;21.80;19.90;;;;;;;8.59;66.02;98570.66;105869;1289;26575;-90
2022/04/28 00:20:31;;;;;;;20.50;18.70;;;;;;;8.56;65.91;98569.69;105282;1287;22564;-89
2022/04/28 00:23:00;;;;;;;21.60;19.50;;;;;;;8.53;65.88;98569.91;105254;1287;22587;-91
2022/04/28 00:25:27;;;;;;;20.20;18.10;;;;;;;8.49;65.81;98568.25;106198;1287;22612;-92
2022/04/28 00:27:55;;;;;;;22.30;20.00;;;;;;;8.45;66.16;98568.40;106585;1287;22576;-91
2022/04/28 00:30:24;;;;;;;20.80;18.70;;;;;;;8.42;66.10;98570.65;107817;1278;22585;-90
2022/04/28 00:32:53;;;;;;;22.40;20.30;;;;;;;8.42;65.88;98572.64;106938;1286;23431;-89
2022/04/28 00:35:21;;;;;;;20.20;18.30;;;;;;;8.41;66.18;98576.89;106548;1289;22928;-94
2022/04/28 00:42:10;;;;;;;20.70;18.60;;;;;;;8.35;66.23;98577.88;105710;1286;24247;-93
2022/04/28 00:44:39;;;;;;;19.40;17.60;;;;;;;8.32;66.20;98576.84;108292;1286;22549;-89
2022/04/28 00:47:09;;;;;;;21.00;19.00;;;;;;;8.30;66.43;98580.67;105967;1290;22694;-89
2022/04/28 00:52:27;;;;;;;21.40;19.40;;;;;;;8.24;66.34;98580.31;105197;1286;24117;-89
2022/04/28 00:54:56;;;;;;;18.70;16.80;;;;;;;8.19;66.39;98578.86;105001;1286;25415;-88
2022/04/28 00:57:46;;;;;;;21.00;18.90;;;;;;;8.15;66.12;98584.66;105070;1286;22553;-89
2022/04/28 01:00:34;;;;;;;24.80;22.50;;;;;;;8.10;66.50;98583.46;105666;1286;22700;-89
2022/04/28 01:03:10;;;;;;;22.20;19.90;;;;;;;8.07;66.46;98579.06;105349;1286;22832;-90
2022/04/28 01:05:39;;;;;;;21.20;19.00;;;;;;;8.05;66.43;98580.45;105553;1286;22695;-91
2022/04/28 01:08:08;;;;;;;18.80;16.90;;;;;;;8.03;66.01;98583.83;105651;1286;22560;-91
2022/04/28 01:10:36;;;;;;;19.60;17.90;;;;;;;7.99;66.45;98579.21;105078;1286;23933;-87
2022/04/28 01:13:05;;;;;;;18.80;16.90;;;;;;;7.95;66.33;98580.05;105401;1286;24276;-89
2022/04/28 01:15:47;;;;;;;21.30;19.20;;;;;;;7.91;66.26;98576.98;105476;1286;22564;-88
2022/04/28 01:18:17;;;;;;;19.50;17.50;;;;;;;7.87;66.63;98576.17;105170;1286;22569;-90
2022/04/28 01:20:46;;;;;;;19.10;17.10;;;;;;;7.83;66.67;98576.80;105456;1286;25374;-92
2022/04/28 01:23:14;;;;;;;20.00;18.00;;;;;;;7.79;66.50;98575.35;105907;1285;25315;-91
2022/04/28 01:25:42;;;;;;;19.20;17.30;;;;;;;7.76;66.65;98578.77;105698;1286;24238;-91
2022/04/28 01:28:11;;;;;;;32.60;29.80;;;;;;;7.73;66.77;98584.02;106226;1286;22666;-91
2022/04/28 01:30:39;;;;;;;23.30;21.20;;;;;;;7.70;66.63;98579.50;105793;1290;22560;-91
2022/04/28 01:33:09;;;;;;;20.10;18.10;;;;;;;7.70;66.71;98581.80;105616;1287;22641;-93
2022/04/28 01:35:39;;;;;;;18.10;15.50;;;;;;;7.71;66.50;98581.17;107029;1287;25200;-90
2022/04/28 01:38:07;;;;;;;18.50;16.10;;;;;;;7.70;66.64;98580.03;106443;1287;22566;-93
2022/04/28 01:40:35;;;;;;;17.80;16.10;;;;;;;7.69;66.72;98583.52;107313;1287;22607;-92
2022/04/28 01:43:03;;;;;;;16.60;14.90;;;;;;;7.65;66.75;98587.09;106489;1287;22560;-93
2022/04/28 01:45:31;;;;;;;17.40;15.70;;;;;;;7.61;66.76;98590.41;105421;1287;22645;-89
2022/04/28 01:48:15;;;;;;;22.10;16.70;;;;;;;7.56;66.75;98592.58;105141;1287;25304;-89
2022/04/28 01:56:28;;;;;;;17.80;16.10;;;;;;;7.47;66.97;98586.32;106431;1288;24236;-92
2022/04/28 01:59:10;;;;;;;19.30;17.40;;;;;;;7.50;67.09;98589.56;105236;1287;22608;-92
2022/04/28 02:01:56;;;;;;;19.20;17.40;;;;;;;7.50;67.01;98591.81;107146;1287;22594;-93
2022/04/28 02:04:32;;;;;;;18.20;16.40;;;;;;;7.49;67.04;98588.86;106891;1278;22553;31
2022/04/28 02:07:00;;;;;;;20.00;17.90;;;;;;;7.45;66.92;98588.20;105401;1288;23405;-89
2022/04/28 02:09:28;;;;;;;19.80;17.50;;;;;;;7.41;66.99;98589.46;104994;1288;22601;-87
2022/04/28 02:11:56;;;;;;;19.00;16.70;;;;;;;7.37;67.00;98589.48;104991;1288;22566;-86
2022/04/28 02:14:45;;;;;;;18.40;16.60;;;;;;;7.31;67.21;98588.06;104954;1288;22560;-86
2022/04/28 02:17:38;;;;;;;20.50;18.50;;;;;;;7.23;67.40;98587.00;105082;1287;22693;-82
2022/04/28 02:20:09;;;;;;;20.10;18.10;;;;;;;7.17;67.37;98592.61;105157;1287;22571;-85
2022/04/28 02:22:38;;;;;;;20.60;18.50;;;;;;;7.12;67.49;98587.05;105911;1287;25270;-85
2022/04/28 02:29:19;;;;;;;19.60;17.60;;;;;;;7.10;67.57;98584.84;105017;1288;24774;-85
2022/04/28 02:31:47;;;;;;;21.30;19.20;;;;;;;7.06;67.80;98587.06;104913;1287;24455;-85
2022/04/28 02:34:15;;;;;;;20.40;18.40;;;;;;;7.01;67.83;98586.66;105064;1287;22671;-85
2022/04/28 02:36:49;;;;;;;24.80;22.50;;;;;;;6.98;67.75;98588.09;105027;1287;22745;-86
2022/04/28 02:39:18;;;;;;;20.80;18.90;;;;;;;6.94;67.72;98588.23;105230;1287;24276;-85
2022/04/28 02:41:49;;;;;;;23.30;21.00;;;;;;;6.90;67.79;98589.27;105203;1287;22562;-85
2022/04/28 02:44:17;;;;;;;18.30;16.60;;;;;;;6.85;67.65;98590.84;105115;1287;22705;-86
2022/04/28 02:46:48;;;;;;;34.20;31.10;;;;;;;6.81;67.69;98589.64;105132;1287;22563;-85
2022/04/28 02:49:25;;;;;;;19.30;17.40;;;;;;;6.79;67.67;98588.34;105415;1287;22997;-87
2022/04/28 02:51:54;;;;;;;27.70;25.00;;;;;;;6.78;67.86;98590.58;105766;1287;22569;-87
2022/04/28 02:54:22;;;;;;;21.00;19.00;;;;;;;6.79;67.93;98587.38;105504;1287;22634;-91
2022/04/28 02:56:51;;;;;;;36.80;33.70;;;;;;;6.75;67.71;98589.64;105432;1287;22612;-92
2022/04/28 02:59:20;;;;;;;25.70;23.00;;;;;;;6.69;68.04;98590.73;105538;1287;25381;-91
2022/04/28 03:01:47;;;;;;;25.80;23.30;;;;;;;6.65;68.17;98595.14;105867;1287;22571;-92
2022/04/28 03:04:18;;;;;;;22.10;20.20;;;;;;;6.60;68.25;98594.58;105801;1289;22741;-92
2022/04/28 03:12:36;;;;;;;20.90;19.00;;;;;;;6.44;68.26;98596.94;105434;1286;22550;-88
2022/04/28 03:15:11;;;;;;;17.30;15.70;;;;;;;6.39;68.31;98595.39;105416;1286;22581;-89
2022/04/28 03:17:39;;;;;;;19.80;14.80;;;;;;;6.36;68.20;98595.27;105546;1286;24276;-87
2022/04/28 03:20:08;;;;;;;16.50;14.90;;;;;;;6.36;68.47;98595.00;105328;1286;25300;-88
2022/04/28 03:22:36;;;;;;;16.40;14.90;;;;;;;6.35;68.59;98598.86;105413;1286;24236;-91
2022/04/28 03:25:04;;;;;;;16.50;14.90;;;;;;;6.33;68.52;98600.17;105266;1286;22637;-89
2022/04/28 03:27:32;;;;;;;23.50;21.30;;;;;;;6.29;68.67;98600.92;105971;1286;25928;-89
2022/04/28 03:30:00;;;;;;;29.50;26.60;;;;;;;6.25;68.55;98598.33;105190;1286;22758;-90
2022/04/28 03:32:30;;;;;;;24.10;22.00;;;;;;;6.20;68.38;98601.22;105098;1286;22709;-89
2022/04/28 03:35:10;;;;;;;20.50;18.50;;;;;;;6.13;68.29;98602.12;105402;1286;22669;-89
2022/04/28 03:37:38;;;;;;;20.90;19.00;;;;;;;6.08;68.51;98604.36;105037;1286;23249;-91
2022/04/28 03:40:07;;;;;;;23.60;21.50;;;;;;;6.02;68.49;98599.49;105068;1286;22888;-89
2022/04/28 03:42:34;;;;;;;38.40;34.40;;;;;;;5.99;68.49;98603.14;105216;1286;23085;-90
2022/04/28 03:45:03;;;;;;;39.70;35.60;;;;;;;5.96;68.34;98609.64;105845;1286;22626;-90
2022/04/28 03:47:38;;;;;;;24.50;22.10;;;;;;;5.82;68.90;98613.46;105208;1286;22567;-89
2022/04/28 03:50:07;;;;;;;23.20;20.90;;;;;;;5.68;70.20;98616.30;105331;1286;22770;-90
2022/04/28 03:52:36;;;;;;;28.40;25.80;;;;;;;5.64;70.56;98615.02;105202;1286;22737;-90
2022/04/28 03:55:05;;;;;;;32.50;29.40;;;;;;;5.64;70.32;98615.86;105392;1286;22912;-89
2022/04/28 03:57:33;;;;;;;28.80;25.90;;;;;;;5.70;70.50;98620.10;105285;1286;22678;-92
2022/04/28 04:00:00;;;;;;;31.70;28.40;;;;;;;5.77;70.03;98621.85;105377;1286;22594;-85
2022/04/28 04:02:34;;;;;;;29.30;26.40;;;;;;;5.83;70.23;98624.49;108149;1286;22575;-89
2022/04/28 04:05:03;;;;;;;26.10;23.90;;;;;;;5.86;69.76;98633.46;106249;1286;22633;-92
2022/04/28 04:07:34;;;;;;;22.60;20.40;;;;;;;5.87;69.94;98633.05;105422;1286;22573;-90
2022/04/28 04:10:27;;;;;;;20.60;18.50;;;;;;;5.86;70.02;98630.64;105687;1286;24935;-91
2022/04/28 04:12:59;;;;;;;19.20;17.40;;;;;;;5.88;70.21;98631.67;105664;1285;22705;-90
2022/04/28 04:15:27;;;;;;;19.30;17.50;;;;;;;5.92;70.22;98637.61;105611;1286;25320;-91
2022/04/28 04:18:10;;;;;;;21.60;19.50;;;;;;;5.95;70.26;98637.78;105178;1286;22588;-90
2022/04/28 04:20:49;;;;;;;20.80;18.80;;;;;;;5.97;70.51;98642.23;105606;1286;22574;-88
2022/04/28 04:23:18;;;;;;;20.30;18.30;;;;;;;6.02;70.63;98643.13;105154;1286;22715;-90
2022/04/28 04:25:47;;;;;;;19.50;17.20;;;;;;;6.06;70.43;98644.20;105629;1286;22563;-91
2022/04/28 04:28:20;;;;;;;19.30;17.50;;;;;;;6.12;70.34;98647.48;105419;1286;22698;-93
2022/04/28 04:34:23;;;;;;;22.20;19.70;;;;;;;6.30;70.40;98650.23;105382;1286;22588;-92
2022/04/28 04:36:51;;;;;;;19.00;17.20;;;;;;;6.34;70.54;98646.32;105451;1286;23389;-91
2022/04/28 04:39:19;;;;;;;20.10;18.10;;;;;;;6.39;70.72;98644.77;105744;1286;22567;-90
2022/04/28 04:41:47;;;;;;;19.10;17.10;;;;;;;6.47;70.46;98645.33;105347;1286;22568;-92
2022/04/28 04:44:18;;;;;;;20.20;18.30;;;;;;;6.56;70.69;98650.92;105636;1285;25197;-88
2022/04/28 04:46:48;;;;;;;25.90;17.40;;;;;;;6.67;70.74;98653.48;105582;1286;22563;-91
2022/04/28 04:49:25;;;;;;;17.90;16.10;;;;;;;6.81;70.70;98652.80;105718;1286;22772;-91
2022/04/28 04:52:09;;;;;;;19.10;17.30;;;;;;;6.96;70.47;98655.11;105483;1286;22735;-90
2022/04/28 04:55:00;;;;;;;18.60;16.60;;;;;;;7.11;70.28;98653.73;105827;1286;22570;-89
2022/04/28 04:57:36;;;;;;;18.10;16.30;;;;;;;7.24;70.15;98655.05;105461;1286;22580;-93
2022/04/28 05:00:07;;;;;;;18.30;16.50;;;;;;;7.34;69.93;98659.13;105507;1286;22746;-90
2022/04/28 05:02:55;;;;;;;17.40;15.50;;;;;;;7.47;70.11;98658.35;105874;1286;22696;-90
2022/04/28 05:05:53;;;;;;;19.00;17.00;;;;;;;7.59;69.61;98661.32;105750;1286;22704;-91
2022/04/28 05:08:27;;;;;;;17.90;16.20;;;;;;;7.70;69.60;98660.24;105790;1286;22587;-93
2022/04/28 05:11:03;;;;;;;17.00;15.30;;;;;;;7.81;69.59;98659.81;106439;1286;22555;-92
2022/04/28 05:13:32;;;;;;;15.50;14.00;;;;;;;7.94;69.14;98663.52;106928;1286;22557;-91
2022/04/28 05:16:09;;;;;;;14.90;13.40;;;;;;;8.08;69.31;98668.02;107215;1286;25371;-89
2022/04/28 05:18:57;;;;;;;15.50;14.10;;;;;;;8.22;68.40;98666.13;105755;1286;24337;-92
2022/04/28 05:21:48;;;;;;;16.40;14.80;;;;;;;8.36;68.92;98668.27;105901;1286;22565;-91
2022/04/28 05:24:34;;;;;;;15.30;13.80;;;;;;;8.48;68.05;98673.79;106036;1286;25379;-92
2022/04/28 05:27:22;;;;;;;15.20;13.80;;;;;;;8.58;68.31;98669.35;108470;1286;22723;-90
2022/04/28 05:29:52;;;;;;;16.00;14.40;;;;;;;8.69;67.90;98669.27;108457;1286;22564;-92
2022/04/28 05:32:38;;;;;;;16.60;15.10;;;;;;;8.80;68.07;98666.90;108324;1285;22546;-89
2022/04/28 05:35:15;;;;;;;15.40;14.00;;;;;;;8.91;67.94;98670.45;106272;1286;22560;-91
2022/04/28 05:37:43;;;;;;;14.30;13.00;;;;;;;9.02;67.20;98666.80;106654;1286;24282;-89
2022/04/28 05:40:39;;;;;;;16.50;14.80;;;;;;;9.13;67.60;98671.56;107268;1285;22315;-88
2022/04/28 05:45:56;;;;;;;21.00;18.70;;;;;;;9.36;67.34;98671.45;105885;1286;22617;-91
2022/04/28 05:48:24;;;;;;;31.90;17.00;;;;;;;9.46;67.18;98675.25;105891;1286;25216;-89
2022/04/28 05:50:58;;;;;;;22.50;18.80;;;;;;;9.57;67.06;98677.91;105067;1286;22566;-89
2022/04/28 05:53:26;;;;;;;20.30;18.00;;;;;;;9.67;66.54;98677.41;105489;1286;22566;-88
2022/04/28 05:55:58;;;;;;;23.50;20.30;;;;;;;9.77;66.58;98677.52;105644;1286;22567;-88
2022/04/28 05:58:37;;;;;;;35.30;26.70;;;;;;;9.89;66.37;98680.23;105162;1286;22723;-89
2022/04/28 06:01:25;;;;;;;19.30;17.10;;;;;;;10.02;65.97;98680.19;105538;1286;22555;-92
2022/04/28 06:03:54;;;;;;;15.70;14.10;;;;;;;10.13;65.99;98682.88;105990;1286;22785;-91
2022/04/28 06:06:22;;;;;;;18.30;14.80;;;;;;;10.25;66.08;98683.54;105694;1284;22757;-89
2022/04/28 06:08:53;;;;;;;15.30;13.80;;;;;;;10.38;65.57;98684.25;105632;1286;22555;-90
2022/04/28 06:11:21;;;;;;;13.90;12.70;;;;;;;10.50;65.60;98686.34;105879;1286;23035;-90
2022/04/28 06:13:49;;;;;;;17.90;16.00;;;;;;;10.62;65.29;98690.63;105894;1286;22490;-89
2022/04/28 06:16:36;;;;;;;13.20;11.80;;;;;;;10.73;64.62;98686.25;105467;1286;22839;-89
2022/04/28 06:19:18;;;;;;;12.40;11.20;;;;;;;10.86;65.09;98686.41;105092;1286;22729;-89
2022/04/28 06:22:18;;;;;;;25.50;19.90;;;;;;;11.00;64.00;98688.80;104799;1286;22753;-89
2022/04/28 06:24:56;;;;;;;10.70;9.40;;;;;;;11.06;63.65;98689.77;105120;1286;25423;-88
2022/04/28 06:27:24;;;;;;;10.40;8.10;;;;;;;11.16;63.60;98690.55;105223;1286;24624;-87
2022/04/28 06:29:52;;;;;;;8.50;7.60;;;;;;;11.26;63.45;98693.00;105099;1286;26001;-88
2022/04/28 06:32:21;;;;;;;26.30;16.90;;;;;;;11.36;63.01;98695.49;105586;1286;24420;-89
2022/04/28 06:34:52;;;;;;;11.50;10.30;;;;;;;11.43;62.38;98700.14;105346;1286;22699;-86
2022/04/28 06:37:23;;;;;;;13.60;11.30;;;;;;;11.50;62.07;98697.31;105834;1286;22570;-87
2022/04/28 06:39:57;;;;;;;;;;;;;;;11.59;61.73;98697.39;105752;1286;22527;-87
2022/04/28 06:42:25;;;;;;;10.30;8.50;;;;;;;11.69;61.24;98698.48;105737;1286;24362;-85
2022/04/28 06:45:23;;;;;;;7.60;6.80;;;;;;;11.78;60.18;98700.31;105237;1286;24200;-87
2022/04/28 06:47:54;;;;;;;8.90;7.50;;;;;;;11.83;59.66;98703.30;106294;1286;22791;-89
2022/04/28 06:50:42;;;;;;;8.90;7.80;;;;;;;11.94;60.51;98702.45;105721;1286;22576;-88
2022/04/28 06:53:29;;;;;;;8.40;6.90;;;;;;;12.05;58.62;98703.02;105680;1286;22567;-87
2022/04/28 06:55:59;;;;;;;8.90;6.70;;;;;;;12.16;59.78;98700.55;105758;1286;22577;-89
2022/04/28 06:58:30;;;;;;;7.40;6.70;;;;;;;12.25;58.66;98704.34;105586;1286;22572;-87
2022/04/28 07:01:03;;;;;;;9.90;7.30;;;;;;;12.32;59.21;98707.66;105482;1286;22575;-89
2022/04/28 07:03:32;;;;;;;8.40;6.70;;;;;;;12.40;58.17;98707.02;105109;1286;22573;-88
2022/04/28 07:06:00;;;;;;;7.60;6.60;;;;;;;12.46;57.40;98709.41;105118;1287;23546;-88
2022/04/28 07:08:30;;;;;;;9.80;6.80;;;;;;;12.50;56.62;98711.54;104981;1286;24291;-86
2022/04/28 07:10:58;;;;;;;7.40;6.60;;;;;;;12.54;57.10;98714.17;105809;1286;22556;-85
2022/04/28 07:13:27;;;;;;;8.20;7.40;;;;;;;12.62;58.00;98716.61;105768;1285;25241;-86
2022/04/28 07:16:08;;;;;;;7.70;6.90;;;;;;;12.73;56.89;98717.11;105377;1286;25371;-86
2022/04/28 07:18:56;;;;;;;7.40;6.40;;;;;;;12.81;57.27;98717.25;106090;1286;23046;-87
2022/04/28 07:21:24;;;;;;;7.90;6.40;;;;;;;12.91;57.43;98713.32;107193;1286;22577;-85
2022/04/28 07:23:51;;;;;;;8.60;7.70;;;;;;;13.00;57.86;98712.80;105711;1286;22689;-90
2022/04/28 07:26:20;;;;;;;10.40;7.70;;;;;;;13.10;57.55;98717.68;105840;1286;26551;-87
2022/04/28 07:28:48;;;;;;;8.80;7.50;;;;;;;13.15;55.87;98717.37;105205;1286;25419;-87
2022/04/28 07:31:22;;;;;;;10.30;8.10;;;;;;;13.18;54.47;98720.95;105686;1286;23238;-88
2022/04/28 07:34:22;;;;;;;10.40;8.80;;;;;;;13.18;53.24;98725.38;105281;1286;22710;-87
2022/04/28 07:37:08;;;;;;;9.30;8.30;;;;;;;13.17;54.20;98723.88;106012;1286;26737;-89
2022/04/28 07:39:55;;;;;;;9.80;7.30;;;;;;;13.23;54.65;98720.83;105896;1286;24020;-90
2022/04/28 07:42:41;;;;;;;10.30;9.20;;;;;;;13.35;55.17;98717.08;105981;1286;22629;-91
2022/04/28 07:45:10;;;;;;;11.10;8.70;;;;;;;13.45;54.48;98717.52;105817;1287;25364;-89
2022/04/28 07:47:38;;;;;;;10.30;8.40;;;;;;;13.53;54.21;98716.44;106922;1285;22571;-90
2022/04/28 07:50:15;;;;;;;10.10;8.00;;;;;;;13.62;54.30;98722.79;107732;1286;23750;-90
2022/04/28 07:52:44;;;;;;;9.30;8.40;;;;;;;13.73;54.37;98722.92;107012;1286;22676;-87
2022/04/28 07:55:12;;;;;;;9.90;7.70;;;;;;;13.85;53.27;98723.39;108319;1279;23087;-87
2022/04/28 07:57:44;;;;;;;9.30;8.30;;;;;;;13.99;53.88;98722.38;108296;1284;22564;-90
2022/04/28 08:00:18;;;;;;;10.30;7.80;;;;;;;14.06;53.12;98725.31;106082;1284;22737;-91
2022/04/28 08:02:49;;;;;;;11.20;7.80;;;;;;;14.06;49.91;98721.25;105966;1286;25231;-87
2022/04/28 08:05:19;;;;;;;8.20;7.30;;;;;;;14.09;50.91;98723.31;106011;1284;22742;-87
2022/04/28 08:07:48;;;;;;;8.60;7.80;;;;;;;14.09;48.94;98732.70;105966;1284;25650;-88
2022/04/28 08:10:16;;;;;;;10.80;8.00;;;;;;;14.05;49.74;98726.00;106473;1284;22741;-83
2022/04/28 08:12:44;;;;;;;8.00;7.10;;;;;;;14.11;50.77;98723.61;106046;1286;22759;-83
2022/04/28 08:15:34;;;;;;;9.80;7.20;;;;;;;14.18;48.85;98728.02;106033;1286;26618;-83
2022/04/28 08:18:04;;;;;;;7.70;6.50;;;;;;;14.11;48.00;98731.19;105943;1287;22680;-85
2022/04/28 08:20:32;;;;;;;8.40;6.40;;;;;;;14.06;46.93;98733.79;106054;1284;22609;-85
2022/04/28 08:23:01;;;;;;;10.50;6.70;;;;;;;14.15;47.72;98736.52;105420;1284;22593;-84
2022/04/28 08:25:29;;;;;;;8.90;7.80;;;;;;;14.07;46.46;98735.45;105581;1287;25488;-84
2022/04/28 08:27:59;;;;;;;10.50;7.10;;;;;;;13.96;47.31;98731.59;106195;1284;22768;-85
2022/04/28 08:30:30;;;;;;;7.50;6.60;;;;;;;13.92;47.72;98734.70;105796;1286;22558;-83
2022/04/28 08:32:59;;;;;;;8.10;6.00;;;;;;;13.89;46.97;98734.47;105953;1283;22605;-87
2022/04/28 08:35:29;;;;;;;8.00;6.70;;;;;;;13.84;45.70;98734.73;106007;1283;24390;-87
2022/04/28 08:37:58;;;;;;;7.80;7.00;;;;;;;13.74;45.81;98735.77;105978;1284;25563;-90
2022/04/28 08:40:26;;;;;;;8.40;6.80;;;;;;;13.75;45.84;98736.33;105638;1285;22571;-86
2022/04/28 08:42:58;;;;;;;7.60;6.80;;;;;;;13.85;45.88;98739.48;105754;1284;22767;-87
2022/04/28 08:46:50;;;;;;;10.00;7.40;;;;;;;13.94;45.34;98740.55;105914;1283;22579;-87
2022/04/28 08:48:34;;;;;;;7.40;6.30;;;;;;;13.83;44.91;98744.30;105809;1283;24093;-87
2022/04/28 08:51:24;;;;;;;9.90;6.30;;;;;;;13.64;44.81;98742.13;105928;1283;22737;-87
2022/04/28 08:53:54;;;;;;;8.60;6.50;;;;;;;13.54;45.75;98745.40;106584;1283;24803;-87
2022/04/28 08:56:24;;;;;;;7.10;6.30;;;;;;;13.51;46.23;98743.34;107079;1283;22564;-86
2022/04/28 08:58:54;;;;;;;8.50;6.60;;;;;;;13.50;46.11;98745.27;106229;1282;22634;-86
2022/04/28 09:01:25;;;;;;;7.50;5.80;;;;;;;13.50;46.16;98741.66;106483;1284;25335;-87
2022/04/28 09:04:12;;;;;;;8.60;6.60;;;;;;;13.57;46.41;98741.94;105840;1283;22551;-88
2022/04/28 09:07:00;;;;;;;8.30;6.50;;;;;;;13.62;46.53;98740.38;105832;1283;23186;-86
2022/04/28 09:09:43;;;;;;;9.80;6.30;;;;;;;13.69;46.10;98742.37;105363;1284;22550;-89
2022/04/28 09:12:29;;;;;;;8.40;7.20;;;;;;;13.75;46.69;98739.77;105815;1283;22624;-87
2022/04/28 09:15:15;;;;;;;8.40;6.00;;;;;;;13.87;46.72;98741.40;105828;1283;22729;-85
2022/04/28 09:17:49;;;;;;;10.50;9.00;;;;;;;13.95;45.35;98744.39;105777;1284;24241;-87
2022/04/28 09:20:21;;;;;;;10.00;7.60;;;;;;;13.93;44.54;98739.08;105812;1283;22568;-88
2022/04/28 09:22:53;;;;;;;11.70;7.80;;;;;;;13.96;45.50;98737.98;105761;1283;22673;-87
2022/04/28 09:25:24;;;;;;;8.30;5.80;;;;;;;14.10;46.08;98734.24;105550;1284;24125;-85
2022/04/28 09:27:54;;;;;;;7.90;6.00;;;;;;;14.39;46.29;98729.38;105706;1283;22872;-87
2022/04/28 09:30:22;;;;;;;7.10;5.70;;;;;;;14.72;43.71;98733.80;105664;1286;22731;-86
2022/04/28 09:33:08;;;;;;;6.50;5.90;;;;;;;14.96;43.99;98731.45;106020;1284;22560;-85
2022/04/28 09:35:51;;;;;;;7.90;6.10;;;;;;;15.10;41.63;98735.48;106140;1284;23334;-85
2022/04/28 09:38:29;;;;;;;7.40;6.50;;;;;;;15.21;42.84;98731.95;105652;1283;22566;-85
2022/04/28 09:44:12;;;;;;;6.00;5.30;;;;;;;15.69;40.50;98728.61;104964;1284;22637;-84
2022/04/28 09:46:47;;;;;;;7.20;6.30;;;;;;;15.80;40.95;98728.48;105788;1284;23976;-85
2022/04/28 09:49:19;;;;;;;6.60;5.90;;;;;;;15.93;40.07;98736.57;105762;1283;22614;-87
2022/04/28 09:52:11;;;;;;;7.20;5.60;;;;;;;15.85;40.12;98734.32;105472;1283;22588;-86
2022/04/28 09:55:03;;;;;;;6.40;5.10;;;;;;;15.77;41.85;98731.44;105356;1287;22554;-86
2022/04/28 09:57:47;;;;;;;7.50;5.10;;;;;;;15.80;41.56;98732.89;105759;1287;25681;-86
2022/04/28 10:00:16;;;;;;;6.00;4.90;;;;;;;15.81;42.05;98728.17;105768;1287;22565;-86
2022/04/28 10:02:55;;;;;;;7.00;6.00;;;;;;;16.02;41.19;98725.17;105419;1285;22560;-84
2022/04/28 10:05:27;;;;;;;8.80;5.00;;;;;;;16.24;42.30;98725.02;105786;1286;24326;-86
2022/04/28 10:08:05;;;;;;;8.90;5.60;;;;;;;16.40;41.91;98722.70;105744;1285;22572;-86
2022/04/28 10:10:34;;;;;;;9.30;6.00;;;;;;;16.37;40.60;98726.02;105741;1285;25318;-87
2022/04/28 10:13:04;;;;;;;6.80;5.70;;;;;;;16.23;39.22;98730.88;105986;1284;22696;-88
2022/04/28 10:15:58;;;;;;;9.80;6.80;;;;;;;16.04;37.88;98732.45;105962;1284;22604;-89
2022/04/28 10:18:49;;;;;;;8.50;6.60;;;;;;;15.80;37.66;98723.91;105943;1287;216051;-86
2022/04/28 10:21:22;;;;;;;7.20;6.00;;;;;;;15.50;37.58;98731.67;106258;1287;22493;-85
2022/04/28 10:33:14;;;;;;;8.50;6.10;;;;;;;14.54;39.28;98725.79;107438;1287;23491;-84
2022/04/28 10:35:53;;;;;;;8.80;6.50;;;;;;;14.49;39.21;98723.63;107874;1283;22886;-87
2022/04/28 10:38:36;;;;;;;11.60;6.70;;;;;;;14.45;39.80;98724.70;107150;1284;24198;-87
2022/04/28 10:41:14;;;;;;;8.80;6.40;;;;;;;14.50;39.20;98729.31;107519;1284;22501;-88
2022/04/28 10:43:43;;;;;;;7.70;6.50;;;;;;;14.46;39.15;98718.91;107844;1283;23812;-86
2022/04/28 10:46:11;;;;;;;9.30;7.20;;;;;;;14.47;39.54;98715.92;107758;1287;22818;-83
2022/04/28 10:48:43;;;;;;;8.60;7.60;;;;;;;14.51;39.52;98715.30;107773;1283;25598;-86
2022/04/28 10:51:12;;;;;;;10.00;6.50;;;;;;;14.65;39.32;98711.11;108522;1284;22604;-88
2022/04/28 10:53:57;;;;;;;7.80;6.30;;;;;;;14.93;38.92;98716.23;108986;1284;22678;-83
2022/04/28 10:56:29;;;;;;;;;;;;;;;15.09;38.21;98720.79;108800;1283;22597;-84
2022/04/28 10:59:21;;;;;;;9.40;5.90;;;;;;;15.07;38.78;98718.77;109079;1283;22700;-83
2022/04/28 11:01:49;;;;;;;7.00;5.80;;;;;;;15.06;38.28;98721.89;109079;1283;22499;-83
2022/04/28 11:04:22;;;;;;;7.30;6.50;;;;;;;15.10;39.41;98718.27;108988;1284;22576;-85
2022/04/28 11:06:52;;;;;;;10.60;6.30;;;;;;;15.17;38.55;98720.33;108674;1284;22789;-88
2022/04/28 11:09:42;;;;;;;8.10;6.10;;;;;;;15.19;37.89;98724.22;108958;1283;22770;-88
2022/04/28 11:12:12;;;;;;;8.60;6.30;;;;;;;15.24;39.38;98718.16;108655;1284;22574;-82
2022/04/28 11:14:48;;;;;;;9.10;6.60;;;;;;;15.33;39.84;98720.35;109008;1284;22729;-82
2022/04/28 11:17:18;;;;;;;8.50;6.90;;;;;;;15.44;39.19;98723.95;108821;1286;22972;-86
2022/04/28 11:19:47;;;;;;;12.00;6.40;;;;;;;15.44;38.82;98722.09;109102;1283;22746;-87
2022/04/28 11:22:15;;;;;;;9.40;5.90;;;;;;;15.44;38.11;98723.17;108606;1284;22561;-88
2022/04/28 11:24:45;;;;;;;9.10;5.90;;;;;;;15.45;38.41;98721.33;107295;1287;22639;-90
2022/04/28 11:27:30;;;;;;;7.30;6.50;;;;;;;15.61;37.88;98716.73;107316;1284;22706;-90
2022/04/28 11:30:58;;;;;;;9.70;6.80;;;;;;;15.87;37.69;98720.89;107428;1283;24233;-90
2022/04/28 11:33:27;;;;;;;9.00;7.10;;;;;;;16.20;37.36;98729.84;106268;1283;23315;-91
2022/04/28 11:35:54;;;;;;;8.20;6.60;;;;;;;16.06;36.30;98726.02;106403;1283;22713;-91
2022/04/28 11:38:27;;;;;;;9.50;7.60;;;;;;;15.90;37.22;98725.23;106324;1283;24226;-92
2022/04/28 11:41:03;;;;;;;9.90;8.10;;;;;;;15.79;37.36;98720.67;106298;1283;22566;-92
2022/04/28 11:43:34;;;;;;;10.40;6.90;;;;;;;15.80;37.63;98717.35;106298;1286;25312;-92
2022/04/28 11:46:02;;;;;;;8.20;6.90;;;;;;;15.80;37.37;98718.76;106346;1286;22672;-92
2022/04/28 11:48:30;;;;;;;10.00;6.80;;;;;;;15.73;36.29;98720.04;106810;1283;25370;-92
2022/04/28 11:51:04;;;;;;;7.80;7.00;;;;;;;15.67;37.53;98719.80;107008;1286;25379;-93
2022/04/28 11:53:59;;;;;;;8.40;6.80;;;;;;;15.68;37.90;98716.78;106607;1286;22548;-91
2022/04/28 11:56:30;;;;;;;7.20;6.50;;;;;;;15.75;37.74;98717.96;106608;1283;22563;-92
2022/04/28 11:59:04;;;;;;;8.60;6.00;;;;;;;15.87;38.43;98714.86;106674;1283;23854;-93
2022/04/28 12:01:33;;;;;;;7.20;5.40;;;;;;;16.16;37.74;98716.14;106815;1283;23097;-92
2022/04/28 12:04:02;;;;;;;9.40;5.40;;;;;;;16.21;36.34;98719.10;106708;1283;22567;-93
2022/04/28 12:06:31;;;;;;;6.70;5.50;;;;;;;16.04;34.97;98724.13;106893;1283;22706;-92
2022/04/28 12:14:37;;;;;;;7.60;5.20;;;;;;;15.86;36.06;98721.64;106578;1283;22597;-93
2022/04/28 12:20:02;;;;;;;7.20;4.10;;;;;;;16.05;37.13;98716.04;108472;1283;22985;-87
2022/04/28 12:22:40;;;;;;;8.10;5.50;;;;;;;16.50;36.75;98715.64;106940;1286;25360;-92
2022/04/28 12:25:10;;;;;;;6.50;5.00;;;;;;;16.94;36.06;98714.98;106282;1283;22696;-91
2022/04/28 12:27:44;;;;;;;6.60;5.40;;;;;;;17.23;34.79;98714.79;106071;1283;22719;-90
2022/04/28 12:30:15;;;;;;;6.90;5.80;;;;;;;17.16;33.88;98716.80;106049;1286;26707;-91
2022/04/28 12:32:52;;;;;;;7.80;5.70;;;;;;;16.83;34.68;98710.13;106032;1286;22603;-92
2022/04/28 12:35:35;;;;;;;5.90;4.60;;;;;;;16.62;35.37;98713.50;106116;1283;24281;-92
2022/04/28 12:38:07;;;;;;;7.30;5.20;;;;;;;16.48;35.10;98705.30;105907;1286;22693;-91
2022/04/28 12:40:40;;;;;;;6.90;5.70;;;;;;;16.37;35.18;98712.05;105931;1283;22762;-89